Time;durP1;ratioP1;P1;durP2;ratioP2;P2;SDS_P1;SDS_P2;PMS_P1;PMS_P2;Temp;Humidity;BMP_temperature;BMP_pressure;BME280_temperature;BME280_humidity;BME280_pressure;Samples;Min_cycle;Max_cycle;Signal;HPM_P1;HPM_P2
2022/04/07 03:02:53;;;;;;;0.70;0.60;;;9.80;84.40;;;;;;4977034;23;20516;-79
2022/04/07 03:05:19;;;;;;;0.60;0.50;;;9.80;84.40;;;;;;4919656;29;20449;-80
2022/04/07 03:07:46;;;;;;;0.67;0.50;;;9.90;84.30;;;;;;4919574;29;20445;-79
2022/04/07 03:10:15;;;;;;;0.60;0.50;;;9.80;84.10;;;;;;4919335;29;20544;-79
2022/04/07 03:12:41;;;;;;;0.60;0.50;;;9.70;84.00;;;;;;4918897;29;20508;-79
2022/04/07 03:15:09;;;;;;;0.70;0.60;;;9.70;84.10;;;;;;4920909;29;20563;-79
2022/04/07 03:17:36;;;;;;;0.60;0.50;;;9.70;83.90;;;;;;4919660;29;20457;-80
2022/04/07 03:20:05;;;;;;;0.60;0.50;;;9.60;84.50;;;;;;4919088;29;20527;-79
2022/04/07 03:22:32;;;;;;;0.70;0.50;;;9.70;85.00;;;;;;4918929;29;20528;-79
2022/04/07 03:24:58;;;;;;;0.70;0.60;;;9.70;84.80;;;;;;4919074;29;20942;-79
2022/04/07 03:27:25;;;;;;;0.67;0.50;;;9.90;84.60;;;;;;4919534;29;20919;-79
2022/04/07 03:29:51;;;;;;;1.20;0.60;;;9.90;82.90;;;;;;4919251;29;20500;-79
2022/04/07 03:32:18;;;;;;;0.60;0.50;;;9.90;82.90;;;;;;4918854;29;20468;-79
2022/04/07 03:34:45;;;;;;;0.60;0.50;;;9.90;83.30;;;;;;4919487;29;20944;-80
2022/04/07 03:37:14;;;;;;;0.70;0.60;;;9.90;82.60;;;;;;4920102;29;20488;-79
2022/04/07 03:39:41;;;;;;;0.60;0.50;;;9.80;83.40;;;;;;4919456;29;20452;-79
2022/04/07 03:42:08;;;;;;;0.60;0.50;;;9.80;83.30;;;;;;4919226;29;20476;-79
2022/04/07 03:44:34;;;;;;;0.70;0.60;;;10.00;83.80;;;;;;4919234;29;20448;-79
2022/04/07 03:47:01;;;;;;;0.60;0.50;;;10.10;82.60;;;;;;4921605;29;20500;-79
2022/04/07 03:49:28;;;;;;;0.63;0.50;;;10.00;82.70;;;;;;4919647;29;20444;-79
2022/04/07 03:51:54;;;;;;;0.60;0.53;;;9.90;83.40;;;;;;4919084;29;20489;-78
2022/04/07 03:54:22;;;;;;;0.63;0.50;;;9.90;83.90;;;;;;4919422;29;20493;-79
2022/04/07 03:56:49;;;;;;;0.60;0.50;;;9.80;83.60;;;;;;4918873;29;20457;-79
2022/04/07 03:59:16;;;;;;;0.70;0.50;;;9.80;83.90;;;;;;4919805;29;20457;-79
2022/04/07 04:01:44;;;;;;;0.70;0.50;;;9.70;84.10;;;;;;4919676;29;20489;-79
2022/04/07 04:04:11;;;;;;;0.67;0.50;;;9.60;84.10;;;;;;4918897;29;20556;-78
2022/04/07 04:06:37;;;;;;;0.63;0.50;;;9.70;84.20;;;;;;4920220;29;20859;-79
2022/04/07 04:09:04;;;;;;;0.70;0.50;;;9.70;83.80;;;;;;4920482;29;20461;-79
2022/04/07 04:11:32;;;;;;;0.60;0.50;;;9.70;83.60;;;;;;4919012;29;21079;-79
2022/04/07 04:13:59;;;;;;;0.67;0.57;;;9.70;83.60;;;;;;4918683;29;20485;-79
2022/04/07 04:16:25;;;;;;;0.67;0.60;;;9.90;83.90;;;;;;4918610;29;21067;-79
2022/04/07 04:18:52;;;;;;;0.60;0.50;;;9.90;83.10;;;;;;4919417;29;20453;-79
2022/04/07 04:21:19;;;;;;;0.70;0.50;;;9.80;82.80;;;;;;4919581;29;20524;-79
2022/04/07 04:23:45;;;;;;;0.70;0.60;;;9.70;83.40;;;;;;4921031;29;20460;-79
2022/04/07 04:26:12;;;;;;;0.70;0.60;;;9.70;83.00;;;;;;4918923;29;20524;-79
2022/04/07 04:28:40;;;;;;;0.70;0.53;;;9.80;83.10;;;;;;4917998;29;20862;-79
2022/04/07 04:31:06;;;;;;;0.60;0.50;;;9.80;83.10;;;;;;4919848;29;20896;-79
2022/04/07 04:33:33;;;;;;;0.80;0.50;;;9.90;82.60;;;;;;4920042;29;20453;-79
2022/04/07 04:36:00;;;;;;;0.60;0.50;;;9.90;82.60;;;;;;4921538;29;20457;-79
2022/04/07 04:38:27;;;;;;;0.60;0.50;;;9.80;82.20;;;;;;4920481;29;20463;-80
2022/04/07 04:40:53;;;;;;;0.60;0.50;;;9.80;82.30;;;;;;4921110;29;20465;-81
2022/04/07 04:43:20;;;;;;;0.60;0.50;;;9.80;82.20;;;;;;4921370;29;20444;-80
2022/04/07 04:45:49;;;;;;;0.67;0.50;;;9.90;82.20;;;;;;4920589;29;20488;-79
2022/04/07 04:48:15;;;;;;;0.70;0.50;;;9.80;82.20;;;;;;4920423;29;20453;-80
2022/04/07 04:50:42;;;;;;;0.70;0.50;;;9.80;81.30;;;;;;4918650;29;20504;-79
2022/04/07 04:53:09;;;;;;;0.70;0.60;;;9.70;82.10;;;;;;4919020;29;20457;-80
2022/04/07 04:55:35;;;;;;;0.67;0.50;;;9.70;82.20;;;;;;4918187;29;20448;-79
2022/04/07 04:58:02;;;;;;;0.60;0.50;;;9.80;82.10;;;;;;4918445;29;20456;-79
2022/04/07 05:00:29;;;;;;;0.60;0.50;;;9.80;81.70;;;;;;4917624;29;20445;-80
2022/04/07 05:02:57;;;;;;;0.60;0.50;;;9.80;81.60;;;;;;4917449;29;20942;-79
2022/04/07 05:05:23;;;;;;;0.60;0.50;;;9.80;82.00;;;;;;4917261;29;20460;-80
2022/04/07 05:07:50;;;;;;;0.70;0.53;;;9.90;81.60;;;;;;4917611;29;20516;-79
2022/04/07 05:10:18;;;;;;;0.60;0.50;;;10.00;81.00;;;;;;4917389;29;20508;-79
2022/04/07 05:12:45;;;;;;;0.60;0.50;;;10.00;81.20;;;;;;4917793;29;20480;-79
2022/04/07 05:15:12;;;;;;;0.60;0.50;;;9.90;80.90;;;;;;4919023;29;20464;-79
2022/04/07 05:17:39;;;;;;;0.70;0.50;;;9.80;81.30;;;;;;4921985;29;20504;-80
2022/04/07 05:20:09;;;;;;;0.70;0.50;;;9.80;81.20;;;;;;4922434;29;20448;-80
2022/04/07 05:22:36;;;;;;;0.60;0.60;;;9.80;82.00;;;;;;4921739;29;20464;-80
2022/04/07 05:25:02;;;;;;;0.60;0.50;;;9.80;82.20;;;;;;4921291;29;20448;-80
2022/04/07 05:27:32;;;;;;;0.70;0.60;;;9.90;82.20;;;;;;4923176;29;20511;-79
2022/04/07 05:29:59;;;;;;;0.60;0.50;;;9.90;81.90;;;;;;4922502;29;20457;-80
2022/04/07 05:32:26;;;;;;;0.63;0.50;;;9.90;81.40;;;;;;4923995;29;20559;-80
2022/04/07 05:34:52;;;;;;;0.60;0.50;;;10.00;81.80;;;;;;4924754;29;20450;-79
2022/04/07 05:37:21;;;;;;;0.60;0.50;;;10.00;81.60;;;;;;4923365;29;20457;-80
2022/04/07 05:39:48;;;;;;;0.60;0.50;;;10.20;81.70;;;;;;4923491;29;20456;-80
2022/04/07 05:42:15;;;;;;;0.60;0.50;;;10.20;80.80;;;;;;4941531;29;20508;-80
2022/04/07 05:44:41;;;;;;;0.70;0.50;;;10.00;80.90;;;;;;4939339;29;20445;-79
2022/04/07 05:47:08;;;;;;;0.60;0.50;;;10.00;80.90;;;;;;4933120;29;20448;-79
2022/04/07 05:49:35;;;;;;;0.60;0.50;;;10.00;81.60;;;;;;4922657;29;20456;-79
2022/04/07 05:52:03;;;;;;;0.60;0.50;;;10.00;80.80;;;;;;4922657;29;20484;-79
2022/04/07 05:54:31;;;;;;;0.60;0.50;;;10.10;80.80;;;;;;4924730;29;20874;-79
2022/04/07 05:56:58;;;;;;;0.60;0.50;;;10.10;81.00;;;;;;4927798;29;20881;-79
2022/04/07 05:59:25;;;;;;;0.60;0.50;;;10.20;80.00;;;;;;4925874;29;20516;-80
2022/04/07 06:01:52;;;;;;;0.60;0.50;;;10.30;80.10;;;;;;4928573;29;20491;-79
2022/04/07 06:04:19;;;;;;;0.70;0.50;;;10.50;79.40;;;;;;4925729;29;20455;-79
2022/04/07 06:06:46;;;;;;;0.60;0.50;;;10.80;78.20;;;;;;4924867;29;20463;-79
2022/04/07 06:09:12;;;;;;;0.60;0.50;;;11.00;77.30;;;;;;4922235;29;20474;-79
2022/04/07 06:11:40;;;;;;;0.60;0.50;;;11.60;75.40;;;;;;4923435;29;20492;-79
2022/04/07 06:14:07;;;;;;;0.60;0.50;;;11.90;73.80;;;;;;4923783;29;20882;-79
2022/04/07 06:16:34;;;;;;;0.70;0.50;;;11.70;74.20;;;;;;4923740;29;20444;-79
2022/04/07 06:19:00;;;;;;;0.60;0.50;;;11.60;74.20;;;;;;4923165;29;20499;-79
2022/04/07 06:21:29;;;;;;;0.60;0.50;;;11.70;73.70;;;;;;4923548;29;20496;-79
2022/04/07 06:23:56;;;;;;;0.60;0.50;;;11.70;73.50;;;;;;4923428;29;20544;-79
2022/04/07 06:26:23;;;;;;;0.60;0.50;;;11.50;74.70;;;;;;4924617;29;20441;-79
2022/04/07 06:28:51;;;;;;;0.60;0.50;;;11.20;74.40;;;;;;4920129;29;20820;-79
2022/04/07 06:31:18;;;;;;;0.60;0.50;;;11.10;75.60;;;;;;4923106;29;20536;-79
2022/04/07 06:33:45;;;;;;;0.70;0.50;;;11.00;75.20;;;;;;4924239;29;20449;-79
2022/04/07 06:36:12;;;;;;;2.03;0.60;;;11.00;75.50;;;;;;4924311;29;20507;-79
2022/04/07 06:38:38;;;;;;;0.70;0.50;;;11.00;75.60;;;;;;4924094;29;20468;-79
2022/04/07 06:41:05;;;;;;;0.60;0.50;;;10.90;75.90;;;;;;4924171;29;20896;-79
2022/04/07 06:43:32;;;;;;;0.60;0.50;;;10.90;75.60;;;;;;4923479;29;20928;-79
2022/04/07 06:46:00;;;;;;;0.70;0.50;;;10.90;76.00;;;;;;4923311;29;20445;-78
2022/04/07 06:48:26;;;;;;;0.70;0.50;;;10.70;75.70;;;;;;4924312;29;20452;-79
2022/04/07 06:50:53;;;;;;;0.90;0.60;;;10.60;76.00;;;;;;4922048;29;20476;-79
2022/04/07 06:53:20;;;;;;;0.60;0.50;;;10.70;76.20;;;;;;4922120;29;20991;-79
2022/04/07 06:55:46;;;;;;;0.60;0.50;;;10.70;76.30;;;;;;4923791;29;20448;-79
2022/04/07 06:58:13;;;;;;;0.60;0.50;;;10.70;76.60;;;;;;4921625;29;20455;-78
2022/04/07 07:00:44;;;;;;;0.60;0.50;;;10.80;76.20;;;;;;4925563;29;20507;-79
2022/04/07 07:03:15;;;;;;;0.60;0.50;;;10.80;76.00;;;;;;4922507;29;20527;-79
2022/04/07 07:05:42;;;;;;;0.60;0.50;;;10.90;75.70;;;;;;4923535;29;20440;-79
2022/04/07 07:08:14;;;;;;;0.60;0.50;;;11.00;75.30;;;;;;4924197;29;20468;-79
2022/04/07 07:10:41;;;;;;;0.70;0.60;;;11.00;75.40;;;;;;4926658;29;20456;-80
2022/04/07 07:13:07;;;;;;;0.80;0.60;;;11.00;75.60;;;;;;4927010;29;20525;-79
2022/04/07 07:15:34;;;;;;;0.63;0.50;;;11.00;76.40;;;;;;4926074;29;20465;-80
2022/04/07 07:18:01;;;;;;;0.70;0.50;;;11.00;75.60;;;;;;4929191;29;20456;-80
2022/04/07 07:20:29;;;;;;;0.60;0.50;;;11.00;75.50;;;;;;4928424;29;20452;-79
2022/04/07 07:22:56;;;;;;;0.60;0.50;;;11.30;74.30;;;;;;4927121;29;20461;-79
2022/04/07 07:25:23;;;;;;;0.60;0.50;;;11.50;75.40;;;;;;4924512;29;20457;-79
2022/04/07 07:27:49;;;;;;;0.60;0.50;;;11.70;73.30;;;;;;4923234;29;20492;-79
2022/04/07 07:30:18;;;;;;;0.70;0.53;;;11.80;73.30;;;;;;4923161;29;20460;-79
2022/04/07 07:32:46;;;;;;;0.70;0.50;;;11.80;73.40;;;;;;4922984;29;20495;-79
2022/04/07 07:35:14;;;;;;;0.60;0.50;;;11.80;73.00;;;;;;4924241;29;20453;-81
2022/04/07 07:37:50;;;;;;;0.60;0.50;;;12.00;73.00;;;;;;4923773;29;20460;-80
2022/04/07 07:40:17;;;;;;;0.60;0.50;;;12.00;72.90;;;;;;4921449;29;20459;-79
2022/04/07 07:42:44;;;;;;;0.70;0.50;;;12.30;73.60;;;;;;4920265;29;20918;-79
2022/04/07 07:45:11;;;;;;;0.60;0.50;;;12.40;71.60;;;;;;4920198;29;20474;-79
2022/04/07 07:47:38;;;;;;;0.60;0.50;;;12.60;71.10;;;;;;4921612;29;20461;-79
2022/04/07 07:50:06;;;;;;;0.70;0.50;;;12.60;70.80;;;;;;4921355;29;20457;-79
2022/04/07 07:52:33;;;;;;;0.60;0.50;;;12.30;71.60;;;;;;4919209;29;20492;-80
2022/04/07 07:55:02;;;;;;;0.60;0.50;;;12.20;71.60;;;;;;4919510;29;20449;-80
2022/04/07 07:57:29;;;;;;;0.60;0.50;;;12.10;72.80;;;;;;4920976;29;20539;-79
2022/04/07 07:59:57;;;;;;;0.80;0.50;;;11.90;72.70;;;;;;4918908;29;20941;-80
2022/04/07 08:02:24;;;;;;;0.60;0.50;;;11.90;72.80;;;;;;4919158;29;20481;-80
2022/04/07 08:04:50;;;;;;;0.70;0.50;;;11.80;73.10;;;;;;4919740;29;20457;-79
2022/04/07 08:07:17;;;;;;;0.67;0.57;;;11.80;73.10;;;;;;4920495;29;20457;-79
2022/04/07 08:09:44;;;;;;;0.60;0.50;;;11.80;73.80;;;;;;4919396;29;20464;-79
2022/04/07 08:12:12;;;;;;;0.63;0.50;;;11.80;73.90;;;;;;4918586;29;20535;-79
2022/04/07 08:14:39;;;;;;;0.60;0.50;;;11.80;73.90;;;;;;4930958;29;20484;-79
2022/04/07 08:17:05;;;;;;;0.70;0.53;;;11.90;73.30;;;;;;4937074;29;20462;-79
2022/04/07 08:19:32;;;;;;;0.60;0.50;;;12.00;73.90;;;;;;4942944;29;20436;-80
2022/04/07 08:21:59;;;;;;;0.77;0.60;;;12.10;72.60;;;;;;4929691;29;20855;-80
2022/04/07 08:24:25;;;;;;;0.60;0.50;;;12.10;73.20;;;;;;4922613;29;20456;-80
2022/04/07 08:26:52;;;;;;;0.70;0.50;;;12.20;72.50;;;;;;4924462;29;20505;-80
2022/04/07 08:29:20;;;;;;;0.60;0.50;;;12.30;71.80;;;;;;4921120;29;20449;-76
2022/04/07 08:31:46;;;;;;;0.60;0.50;;;12.40;71.80;;;;;;4920099;29;20484;-77
2022/04/07 08:34:13;;;;;;;0.70;0.60;;;12.30;72.00;;;;;;4919363;29;20460;-78
2022/04/07 08:36:42;;;;;;;0.60;0.50;;;12.40;72.50;;;;;;4920032;29;20500;-77
2022/04/07 08:39:08;;;;;;;1.13;0.50;;;12.40;71.60;;;;;;4918518;29;20982;-77
2022/04/07 08:41:35;;;;;;;0.70;0.50;;;12.40;72.10;;;;;;4918784;29;20524;-77
2022/04/07 08:44:04;;;;;;;0.60;0.50;;;12.40;71.70;;;;;;4918394;29;20457;-76
2022/04/07 08:46:33;;;;;;;0.63;0.50;;;12.50;72.00;;;;;;4918858;29;20960;-77
2022/04/07 08:49:03;;;;;;;1.10;0.50;;;12.50;71.40;;;;;;4917799;29;20453;-76
2022/04/07 08:51:31;;;;;;;0.70;0.50;;;12.60;71.50;;;;;;4917729;29;20484;-77
2022/04/07 08:53:58;;;;;;;0.60;0.50;;;12.90;70.80;;;;;;4917560;29;20837;-77
2022/04/07 08:56:25;;;;;;;0.70;0.50;;;13.30;69.60;;;;;;4918025;29;20481;-77
2022/04/07 08:58:53;;;;;;;0.60;0.50;;;13.50;68.70;;;;;;4917737;29;20460;-77
2022/04/07 09:01:20;;;;;;;0.70;0.50;;;13.30;69.10;;;;;;4917691;29;20501;-77
2022/04/07 09:03:48;;;;;;;0.60;0.50;;;13.20;68.60;;;;;;4917222;29;20812;-76
2022/04/07 09:06:15;;;;;;;0.60;0.50;;;12.90;69.10;;;;;;4917478;29;20449;-77
2022/04/07 09:08:42;;;;;;;0.63;0.50;;;13.00;69.70;;;;;;4917306;29;20880;-77
2022/04/07 09:11:10;;;;;;;0.60;0.50;;;13.00;69.60;;;;;;4917143;29;20903;-78
2022/04/07 09:13:39;;;;;;;0.60;0.50;;;13.00;69.70;;;;;;4917219;29;20547;-78
2022/04/07 09:16:08;;;;;;;0.60;0.50;;;13.10;69.50;;;;;;5011293;23;20583;-72
2022/04/07 09:18:36;;;;;;;0.70;0.50;;;13.00;69.70;;;;;;4916647;29;20452;-71
2022/04/07 09:21:05;;;;;;;0.63;0.50;;;12.90;69.30;;;;;;4916733;29;20481;-72
2022/04/07 09:23:37;;;;;;;0.70;0.60;;;12.80;70.30;;;;;;4916854;29;20501;-73
2022/04/07 09:26:04;;;;;;;0.70;0.50;;;12.80;69.90;;;;;;4916511;29;20536;-72
2022/04/07 09:28:32;;;;;;;0.60;0.50;;;12.90;70.10;;;;;;4916623;29;20457;-72
2022/04/07 09:31:00;;;;;;;0.60;0.50;;;12.90;69.90;;;;;;4916645;29;20460;-73
2022/04/07 09:33:28;;;;;;;0.70;0.50;;;12.80;69.50;;;;;;4916563;29;20496;-73
2022/04/07 09:36:02;;;;;;;0.70;0.50;;;12.80;69.30;;;;;;4916598;29;20468;-73
2022/04/07 09:38:31;;;;;;;0.70;0.50;;;12.80;69.80;;;;;;4916939;29;20453;-74
2022/04/07 09:41:08;;;;;;;0.60;0.50;;;12.70;69.90;;;;;;4917607;29;20456;-73
2022/04/07 09:43:45;;;;;;;0.73;0.57;;;12.50;71.70;;;;;;4916612;29;20476;-74
2022/04/07 09:46:13;;;;;;;0.60;0.50;;;12.40;71.90;;;;;;4916469;29;20874;-73
2022/04/07 09:48:40;;;;;;;1.00;0.60;;;12.40;72.00;;;;;;4916452;29;20460;-73
2022/04/07 09:51:08;;;;;;;0.60;0.50;;;12.40;72.00;;;;;;4916901;29;20475;-74
2022/04/07 09:53:38;;;;;;;0.70;0.50;;;12.50;72.70;;;;;;4916346;29;20484;-73
2022/04/07 09:56:06;;;;;;;0.70;0.60;;;12.50;71.90;;;;;;4916425;29;20540;-73
2022/04/07 09:58:34;;;;;;;0.60;0.50;;;12.50;72.70;;;;;;4916491;29;20457;-74
2022/04/07 10:01:02;;;;;;;0.60;0.50;;;12.50;72.80;;;;;;4916834;29;20456;-73
2022/04/07 10:03:30;;;;;;;0.60;0.50;;;12.70;72.30;;;;;;4919954;29;20873;-72
2022/04/07 10:05:58;;;;;;;0.60;0.50;;;12.80;72.40;;;;;;4919538;29;20555;-72
2022/04/07 10:08:25;;;;;;;0.60;0.50;;;12.90;71.90;;;;;;4919913;29;20452;-74
2022/04/07 10:10:54;;;;;;;0.60;0.50;;;12.90;71.80;;;;;;4919993;29;20487;-73
2022/04/07 10:13:21;;;;;;;0.60;0.50;;;12.80;70.90;;;;;;4919912;29;20539;-73
2022/04/07 10:15:48;;;;;;;1.00;0.60;;;12.80;70.70;;;;;;4919437;29;20890;-74
2022/04/07 10:18:24;;;;;;;0.60;0.50;;;12.90;71.20;;;;;;4919746;29;20448;-72
2022/04/07 10:20:57;;;;;;;0.60;0.50;;;13.00;70.20;;;;;;4919779;29;20784;-73
2022/04/07 10:23:35;;;;;;;0.60;0.50;;;12.90;70.90;;;;;;4919838;29;20437;-74
2022/04/07 10:26:05;;;;;;;0.67;0.50;;;12.80;71.40;;;;;;4919379;29;20473;-73
2022/04/07 10:28:31;;;;;;;0.60;0.50;;;12.90;71.00;;;;;;4919537;29;20543;-72
2022/04/07 10:30:59;;;;;;;0.70;0.50;;;12.90;70.40;;;;;;4919225;29;20982;-72
2022/04/07 10:33:40;;;;;;;0.60;0.50;;;12.90;70.20;;;;;;4919090;29;21075;-73
2022/04/07 10:36:13;;;;;;;0.70;0.50;;;12.90;70.40;;;;;;4920000;29;20472;-75
2022/04/07 10:38:41;;;;;;;0.60;0.50;;;12.70;71.30;;;;;;4920341;29;20445;-74
2022/04/07 10:41:10;;;;;;;0.60;0.50;;;12.60;71.90;;;;;;4919566;29;20629;-74
2022/04/07 10:43:40;;;;;;;0.60;0.50;;;12.80;71.90;;;;;;4920782;29;20500;-74
2022/04/07 10:46:13;;;;;;;0.60;0.47;;;12.90;71.50;;;;;;4920158;29;20496;-74
2022/04/07 10:48:46;;;;;;;0.60;0.50;;;12.80;71.70;;;;;;4919272;29;20439;-74
2022/04/07 10:51:13;;;;;;;0.70;0.57;;;12.80;71.60;;;;;;4919122;29;20441;-74
2022/04/07 10:53:42;;;;;;;0.60;0.50;;;12.90;71.80;;;;;;4918717;29;20915;-74
2022/04/07 10:56:23;;;;;;;0.63;0.50;;;13.00;71.70;;;;;;4918685;29;20841;-73
2022/04/07 10:58:54;;;;;;;0.60;0.50;;;12.90;71.70;;;;;;4918719;29;20532;-74
2022/04/07 11:01:54;;;;;;;0.60;0.50;;;13.00;70.90;;;;;;4919830;29;20437;-74
2022/04/07 11:05:08;;;;;;;0.60;0.50;;;13.00;71.40;;;;;;4921186;29;20433;-74
2022/04/07 11:07:39;;;;;;;0.60;0.50;;;13.10;71.50;;;;;;4921464;29;20441;-73
2022/04/07 11:10:12;;;;;;;0.70;0.60;;;13.20;71.00;;;;;;4921647;29;20448;-74
2022/04/07 11:12:43;;;;;;;0.63;0.50;;;13.40;70.70;;;;;;4921020;29;20918;-74
2022/04/07 11:15:31;;;;;;;0.60;0.50;;;13.40;69.60;;;;;;4923009;29;20487;-74
2022/04/07 11:18:14;;;;;;;0.70;0.50;;;13.40;70.10;;;;;;4921597;29;20437;-73
2022/04/07 11:21:01;;;;;;;0.60;0.50;;;13.50;70.30;;;;;;4921345;29;20921;-74
2022/04/07 11:23:40;;;;;;;0.60;0.50;;;13.50;70.10;;;;;;4920978;29;20528;-73
2022/04/07 11:26:11;;;;;;;0.70;0.50;;;13.50;69.20;;;;;;4921403;29;20515;-75
2022/04/07 11:28:39;;;;;;;0.70;0.50;;;13.60;69.40;;;;;;4921332;29;20780;-74
2022/04/07 11:31:07;;;;;;;0.60;0.50;;;13.60;69.30;;;;;;4920255;29;20459;-73
2022/04/07 11:33:38;;;;;;;0.60;0.50;;;13.60;69.10;;;;;;4920641;29;20491;-75
2022/04/07 11:36:13;;;;;;;0.67;0.50;;;13.60;68.60;;;;;;4921225;29;20484;-73
2022/04/07 11:38:46;;;;;;;0.63;0.50;;;13.70;68.80;;;;;;4922320;29;20527;-75
2022/04/07 11:41:14;;;;;;;0.70;0.60;;;13.70;68.80;;;;;;4922203;29;20528;-74
2022/04/07 11:43:44;;;;;;;0.70;0.53;;;13.90;68.60;;;;;;4921771;29;20445;-72
2022/04/07 11:46:12;;;;;;;0.60;0.50;;;13.90;68.90;;;;;;4920614;29;20468;-75
2022/04/07 11:48:40;;;;;;;0.60;0.50;;;13.90;69.50;;;;;;4920698;29;20503;-73
2022/04/07 11:51:11;;;;;;;0.70;0.50;;;13.70;70.10;;;;;;4921304;29;20445;-73
2022/04/07 11:53:40;;;;;;;0.70;0.57;;;13.60;70.30;;;;;;4921426;29;20555;-73
2022/04/07 11:56:13;;;;;;;0.93;0.50;;;13.50;70.50;;;;;;4920440;29;20523;-73
2022/04/07 11:58:41;;;;;;;0.70;0.53;;;13.30;70.60;;;;;;4919960;29;20835;-75
2022/04/07 12:01:11;;;;;;;0.63;0.50;;;13.30;70.50;;;;;;4920092;29;20456;-73
2022/04/07 12:03:38;;;;;;;0.70;0.60;;;13.30;70.40;;;;;;4920147;29;20452;-74
2022/04/07 12:06:05;;;;;;;0.70;0.60;;;13.40;70.70;;;;;;4920339;29;20476;-73
2022/04/07 12:08:32;;;;;;;0.70;0.50;;;13.30;70.80;;;;;;4920183;29;20456;-74
2022/04/07 12:10:59;;;;;;;0.60;0.50;;;13.30;71.20;;;;;;4919377;29;20461;-72
2022/04/07 12:13:26;;;;;;;0.60;0.50;;;13.20;71.50;;;;;;4919736;29;20836;-74
2022/04/07 12:15:54;;;;;;;1.27;0.60;;;13.10;72.30;;;;;;4919595;29;20496;-73
2022/04/07 12:18:26;;;;;;;0.60;0.50;;;12.90;72.70;;;;;;4919649;29;20951;-73
2022/04/07 12:21:00;;;;;;;0.60;0.50;;;12.70;73.40;;;;;;4919676;29;20468;-73
2022/04/07 12:23:28;;;;;;;0.60;0.50;;;12.70;74.00;;;;;;4919718;29;20456;-72
2022/04/07 12:25:59;;;;;;;0.60;0.50;;;12.60;74.20;;;;;;4919315;29;20472;-73
2022/04/07 12:28:33;;;;;;;0.67;0.50;;;12.40;75.00;;;;;;4919558;29;20862;-72
2022/04/07 12:31:01;;;;;;;0.60;0.50;;;12.40;75.30;;;;;;4918696;29;20432;-72
2022/04/07 12:33:38;;;;;;;0.60;0.50;;;12.50;75.60;;;;;;4918356;29;21030;-72
2022/04/07 12:36:05;;;;;;;0.70;0.50;;;12.50;75.40;;;;;;4918763;29;20468;-74
2022/04/07 12:38:32;;;;;;;0.60;0.50;;;12.50;75.10;;;;;;4919500;29;20488;-74
2022/04/07 12:41:10;;;;;;;0.60;0.50;;;12.50;75.30;;;;;;4919378;29;20449;-74
2022/04/07 12:43:43;;;;;;;0.60;0.50;;;12.50;74.80;;;;;;4918234;29;20464;-73
2022/04/07 12:46:12;;;;;;;2.03;0.60;;;12.50;74.00;;;;;;4917042;29;20480;-72
2022/04/07 12:48:58;;;;;;;0.60;0.50;;;12.40;74.80;;;;;;4917038;29;20500;-73
2022/04/07 12:51:26;;;;;;;0.60;0.50;;;12.30;75.20;;;;;;4917371;29;20473;-73
2022/04/07 12:54:12;;;;;;;0.60;0.50;;;12.30;75.20;;;;;;4916966;29;20833;-72
2022/04/07 12:56:41;;;;;;;0.60;0.50;;;12.30;75.80;;;;;;4916938;29;20907;-73
2022/04/07 12:59:10;;;;;;;0.60;0.50;;;12.30;75.80;;;;;;4916953;29;20516;-73
2022/04/07 13:01:40;;;;;;;0.70;0.50;;;12.40;76.20;;;;;;4917317;29;20448;-74
2022/04/07 13:04:08;;;;;;;0.80;0.50;;;12.30;76.30;;;;;;4917425;29;20464;-74
2022/04/07 13:06:37;;;;;;;0.60;0.47;;;12.40;76.50;;;;;;4917211;29;20572;-75
2022/04/07 13:09:04;;;;;;;0.60;0.50;;;12.50;75.90;;;;;;4916919;29;20948;-73
2022/04/07 13:11:36;;;;;;;0.60;0.50;;;12.40;76.00;;;;;;4917149;29;20586;-73
2022/04/07 13:14:04;;;;;;;0.63;0.50;;;12.40;76.20;;;;;;4917135;29;20890;-72
2022/04/07 13:16:31;;;;;;;0.60;0.50;;;12.40;75.60;;;;;;4916592;29;20480;-73
2022/04/07 13:18:59;;;;;;;0.67;0.50;;;12.50;75.50;;;;;;4916685;29;21016;-73
2022/04/07 13:21:26;;;;;;;0.70;0.50;;;12.60;74.90;;;;;;4916602;29;20453;-73
2022/04/07 13:23:54;;;;;;;0.70;0.50;;;12.60;75.00;;;;;;4916854;29;20483;-73
2022/04/07 13:26:22;;;;;;;0.60;0.50;;;12.60;75.40;;;;;;4917632;29;20472;-73
2022/04/07 13:28:49;;;;;;;0.67;0.50;;;12.50;75.60;;;;;;4916787;29;20465;-73
2022/04/07 13:31:16;;;;;;;0.60;0.50;;;12.60;75.30;;;;;;4916647;29;20809;-73
2022/04/07 13:33:43;;;;;;;0.60;0.53;;;12.80;74.80;;;;;;4916254;29;21008;-72
2022/04/07 13:36:11;;;;;;;0.90;0.50;;;12.90;74.20;;;;;;4917060;29;20610;-72
2022/04/07 13:38:38;;;;;;;0.60;0.50;;;13.10;73.20;;;;;;4920052;29;20484;-72
2022/04/07 13:41:05;;;;;;;0.70;0.50;;;13.10;73.00;;;;;;4920416;29;20504;-71
2022/04/07 13:43:32;;;;;;;0.60;0.50;;;13.10;72.90;;;;;;4920087;29;20463;-72
2022/04/07 13:45:59;;;;;;;0.80;0.60;;;13.20;73.00;;;;;;4920390;29;20492;-71
2022/04/07 13:48:26;;;;;;;1.00;0.50;;;13.30;72.30;;;;;;4920100;29;20582;-73
2022/04/07 13:50:53;;;;;;;0.70;0.50;;;13.40;72.00;;;;;;4919665;29;20539;-70
2022/04/07 13:53:21;;;;;;;0.60;0.50;;;13.30;72.40;;;;;;4920038;29;20496;-72
2022/04/07 13:55:48;;;;;;;0.60;0.50;;;13.40;72.20;;;;;;4919949;29;20485;-71
2022/04/07 13:58:15;;;;;;;1.10;0.60;;;13.40;72.10;;;;;;4920048;29;20535;-72
2022/04/07 14:00:43;;;;;;;0.70;0.50;;;13.30;72.10;;;;;;4920295;29;20448;-74
2022/04/07 14:03:10;;;;;;;0.60;0.50;;;13.40;73.70;;;;;;4919863;29;20468;-72
2022/04/07 14:05:37;;;;;;;0.60;0.50;;;13.60;72.30;;;;;;4919846;29;20476;-72
2022/04/07 14:08:04;;;;;;;0.60;0.50;;;13.70;72.00;;;;;;4919432;29;20949;-72
2022/04/07 14:10:34;;;;;;;0.67;0.50;;;13.80;71.50;;;;;;4919773;29;20507;-72
2022/04/07 14:13:01;;;;;;;0.60;0.50;;;13.80;71.30;;;;;;4919365;29;20948;-74
2022/04/07 14:15:28;;;;;;;0.67;0.53;;;13.80;70.90;;;;;;4919623;29;20527;-72
2022/04/07 14:17:55;;;;;;;0.60;0.50;;;13.90;71.10;;;;;;4920203;29;20496;-73
2022/04/07 14:20:23;;;;;;;0.83;0.57;;;13.90;70.70;;;;;;4921684;29;20504;-73
2022/04/07 14:22:50;;;;;;;0.60;0.50;;;13.70;70.60;;;;;;4921941;29;20455;-71
2022/04/07 14:25:17;;;;;;;0.60;0.50;;;13.70;71.00;;;;;;4924086;29;20581;-72
2022/04/07 14:27:45;;;;;;;0.70;0.50;;;13.70;70.60;;;;;;4921800;29;20484;-73
2022/04/07 14:30:12;;;;;;;0.60;0.50;;;13.70;70.50;;;;;;4920198;29;20467;-72
2022/04/07 14:32:43;;;;;;;0.63;0.50;;;13.80;70.50;;;;;;4919772;29;20461;-71
2022/04/07 14:35:10;;;;;;;0.70;0.50;;;13.90;69.70;;;;;;4919552;29;20906;-73
2022/04/07 14:37:37;;;;;;;0.67;0.50;;;14.00;69.50;;;;;;4919666;29;20460;-73
2022/04/07 14:40:05;;;;;;;0.63;0.50;;;14.10;69.70;;;;;;4919641;29;20464;-72
2022/04/07 14:42:32;;;;;;;0.70;0.50;;;14.10;69.60;;;;;;4919557;29;20576;-73
2022/04/07 14:45:00;;;;;;;0.70;0.50;;;13.90;70.10;;;;;;4918945;29;20480;-71
2022/04/07 14:47:26;;;;;;;0.70;0.50;;;13.90;69.90;;;;;;4918804;29;20449;-72
2022/04/07 14:49:53;;;;;;;1.00;0.50;;;14.10;70.00;;;;;;4919022;29;20453;-72
2022/04/07 14:52:20;;;;;;;0.70;0.60;;;14.30;69.50;;;;;;4919563;29;20512;-72
2022/04/07 14:54:47;;;;;;;0.70;0.50;;;14.40;68.80;;;;;;4919364;29;20495;-71
2022/04/07 14:57:14;;;;;;;0.70;0.50;;;14.40;68.70;;;;;;4918943;29;20941;-73
2022/04/07 14:59:41;;;;;;;0.60;0.50;;;14.40;69.00;;;;;;4918906;29;20453;-73
2022/04/07 15:02:12;;;;;;;0.60;0.50;;;14.50;68.70;;;;;;4918665;29;20798;-72
2022/04/07 15:04:39;;;;;;;0.70;0.50;;;14.80;67.30;;;;;;4919251;29;20884;-73
2022/04/07 15:07:06;;;;;;;0.70;0.50;;;15.20;67.10;;;;;;4919153;29;20472;-72
2022/04/07 15:09:34;;;;;;;0.70;0.50;;;15.50;65.80;;;;;;4919407;29;20532;-71
2022/04/07 15:12:01;;;;;;;0.60;0.50;;;15.70;64.90;;;;;;4919767;29;20463;-70
2022/04/07 15:14:28;;;;;;;0.70;0.50;;;16.00;65.10;;;;;;4918694;29;20861;-71
2022/04/07 15:16:55;;;;;;;0.60;0.50;;;16.60;63.30;;;;;;5029289;23;21068;-75
2022/04/07 15:19:23;;;;;;;0.60;0.60;;;16.70;62.70;;;;;;4919227;29;20491;-75
2022/04/07 15:21:50;;;;;;;0.60;0.50;;;17.00;61.70;;;;;;4918986;29;20453;-75
2022/04/07 15:24:17;;;;;;;0.60;0.57;;;16.60;62.90;;;;;;4919218;29;20440;-74
2022/04/07 15:26:46;;;;;;;0.60;0.50;;;15.90;64.60;;;;;;4918929;29;20468;-74
2022/04/07 15:29:13;;;;;;;0.67;0.50;;;15.20;66.40;;;;;;4919050;29;20453;-74
2022/04/07 15:31:39;;;;;;;0.70;0.60;;;15.00;67.80;;;;;;4919051;29;20452;-74
2022/04/07 15:34:06;;;;;;;0.70;0.50;;;14.80;68.50;;;;;;4919049;29;20548;-75
2022/04/07 15:36:34;;;;;;;0.67;0.50;;;14.40;70.10;;;;;;4918889;29;20465;-74
2022/04/07 15:39:01;;;;;;;0.67;0.50;;;14.20;72.20;;;;;;4919076;29;20458;-74
2022/04/07 15:41:28;;;;;;;0.70;0.50;;;13.90;72.40;;;;;;4918716;29;20456;-74
2022/04/07 15:43:57;;;;;;;0.70;0.50;;;13.80;73.80;;;;;;4918834;29;20633;-74
2022/04/07 15:46:23;;;;;;;0.70;0.50;;;13.70;75.10;;;;;;4918677;29;20480;-74
2022/04/07 15:48:50;;;;;;;0.60;0.50;;;13.70;75.20;;;;;;4918604;29;20453;-74
2022/04/07 15:51:17;;;;;;;0.70;0.60;;;13.80;75.20;;;;;;4918558;29;20449;-74
2022/04/07 15:53:45;;;;;;;0.60;0.50;;;13.40;76.00;;;;;;4918575;29;20452;-74
2022/04/07 15:56:11;;;;;;;0.70;0.50;;;13.30;77.40;;;;;;4918842;29;20479;-74